Check out our new PWSWeather beta!
PWSweather.com
Personal Weather Stations
Station Observations
PICKERING
North Yorkshire, PickeringGB

North YorkshirePickeringGB

Lat: 54.2494, Lon: -0.7725

Elevation: 192

Station Type: Oregon Scientific WMR100

High Low Average
Temperature 50.4°F10.2°C 41.4°F5.2°C 44.8°F7.1°C
Dew Point 42.8°F6.0°C 37.4°F3.0°C 39.3°F4.1°C
Winds 3.6 mph 5.8 kmh Calm Calm 1.0 mph SE1.6 kmh SE
Wind Gusts 5.8 mph9.3 kmh -- 2.0 mph3.2 kmh
Humidity 83% 75% 80%
Pressure 30.04 in1017.3 mb 29.83 in1010.2 mb -
Precipitation 0.00 in0.0 mm - -
Hour Temp Dew Point Humidity Winds Wind Gusts Pressure Precip Precip Rate Daily Precip Total
12:00 AM 43.0°F6.1°C 37.4°F3.0°C 80% 0.1 mph WNW0.2 kmh WNW 1.1 mph1.8 kmh 29.95 in1014.2 mb 0.00 in0.0 mm 0.00 in0.0 mm 0.00 in0.0 mm
12:05 AM 43.0°F6.1°C 37.4°F3.0°C 80% 0.2 mph NE0.3 kmh NE 0.9 mph1.4 kmh 29.95 in1014.2 mb 0.00 in0.0 mm 0.00 in0.0 mm 0.00 in0.0 mm
12:10 AM 43.0°F6.1°C 37.4°F3.0°C 80% 0.3 mph NE0.5 kmh NE 0.9 mph1.4 kmh 29.95 in1014.2 mb 0.00 in0.0 mm 0.00 in0.0 mm 0.00 in0.0 mm
12:15 AM 43.0°F6.1°C 37.4°F3.0°C 80% 0.5 mph NNE0.8 kmh NNE 3.1 mph5.0 kmh 29.95 in1014.2 mb 0.00 in0.0 mm 0.00 in0.0 mm 0.00 in0.0 mm
12:20 AM 43.0°F6.1°C 37.4°F3.0°C 80% 1.0 mph NNE1.6 kmh NNE 3.4 mph5.5 kmh 29.95 in1014.2 mb 0.00 in0.0 mm 0.00 in0.0 mm 0.00 in0.0 mm
12:25 AM 43.0°F6.1°C 37.4°F3.0°C 80% 0.9 mph N1.4 kmh N 3.4 mph5.5 kmh 29.95 in1014.2 mb 0.00 in0.0 mm 0.00 in0.0 mm 0.00 in0.0 mm
12:30 AM 43.0°F6.1°C 37.4°F3.0°C 80% 0.4 mph NNW0.6 kmh NNW 1.3 mph2.1 kmh 29.95 in1014.2 mb 0.00 in0.0 mm 0.00 in0.0 mm 0.00 in0.0 mm
12:35 AM 43.0°F6.1°C 37.4°F3.0°C 80% 0.2 mph N0.3 kmh N 1.1 mph1.8 kmh 29.95 in1014.2 mb 0.00 in0.0 mm 0.00 in0.0 mm 0.00 in0.0 mm
12:40 AM 43.0°F6.1°C 37.4°F3.0°C 80% 0.5 mph N0.8 kmh N 1.1 mph1.8 kmh 29.98 in1015.2 mb 0.00 in0.0 mm 0.00 in0.0 mm 0.00 in0.0 mm
12:45 AM 43.0°F6.1°C 37.4°F3.0°C 80% 0.6 mph N1.0 kmh N 1.1 mph1.8 kmh 29.98 in1015.2 mb 0.00 in0.0 mm 0.00 in0.0 mm 0.00 in0.0 mm
12:50 AM 43.0°F6.1°C 37.4°F3.0°C 80% 0.6 mph N1.0 kmh N 1.6 mph2.6 kmh 29.98 in1015.2 mb 0.00 in0.0 mm 0.00 in0.0 mm 0.00 in0.0 mm
12:55 AM 43.0°F6.1°C 37.4°F3.0°C 80% 0.7 mph N1.1 kmh N 1.6 mph2.6 kmh 29.98 in1015.2 mb 0.00 in0.0 mm 0.00 in0.0 mm 0.00 in0.0 mm
01:00 AM 43.0°F6.1°C 37.4°F3.0°C 80% 0.3 mph N0.5 kmh N 0.9 mph1.4 kmh 29.98 in1015.2 mb 0.00 in0.0 mm 0.00 in0.0 mm 0.00 in0.0 mm
01:05 AM 43.0°F6.1°C 37.4°F3.0°C 80% 0.3 mph NW0.5 kmh NW 1.3 mph2.1 kmh 29.98 in1015.2 mb 0.00 in0.0 mm 0.00 in0.0 mm 0.00 in0.0 mm
01:10 AM 43.0°F6.1°C 37.4°F3.0°C 80% 0.6 mph NE1.0 kmh NE 2.5 mph4.0 kmh 29.98 in1015.2 mb 0.00 in0.0 mm 0.00 in0.0 mm 0.00 in0.0 mm
01:15 AM 43.0°F6.1°C 37.4°F3.0°C 80% 0.8 mph NE1.3 kmh NE 2.5 mph4.0 kmh 29.98 in1015.2 mb 0.00 in0.0 mm 0.00 in0.0 mm 0.00 in0.0 mm
01:20 AM 43.0°F6.1°C 37.4°F3.0°C 81% 0.6 mph NNE1.0 kmh NNE 1.6 mph2.6 kmh 29.98 in1015.2 mb 0.00 in0.0 mm 0.00 in0.0 mm 0.00 in0.0 mm
01:25 AM 43.0°F6.1°C 37.4°F3.0°C 81% 0.2 mph N0.3 kmh N 1.1 mph1.8 kmh 29.98 in1015.2 mb 0.00 in0.0 mm 0.00 in0.0 mm 0.00 in0.0 mm
01:30 AM 43.0°F6.1°C 37.4°F3.0°C 81% Calm Calm -- 29.98 in1015.2 mb 0.00 in0.0 mm 0.00 in0.0 mm 0.00 in0.0 mm
01:35 AM 43.0°F6.1°C 37.4°F3.0°C 81% 0.3 mph NNE0.5 kmh NNE 1.6 mph2.6 kmh 29.98 in1015.2 mb 0.00 in0.0 mm 0.00 in0.0 mm 0.00 in0.0 mm
01:40 AM 43.0°F6.1°C 37.4°F3.0°C 81% 0.8 mph N1.3 kmh N 1.6 mph2.6 kmh 29.98 in1015.2 mb 0.00 in0.0 mm 0.00 in0.0 mm 0.00 in0.0 mm
01:45 AM 43.0°F6.1°C 37.4°F3.0°C 81% 0.7 mph N1.1 kmh N 1.6 mph2.6 kmh 29.98 in1015.2 mb 0.00 in0.0 mm 0.00 in0.0 mm 0.00 in0.0 mm
01:50 AM 42.8°F6.0°C 37.4°F3.0°C 81% 0.8 mph N1.3 kmh N 1.6 mph2.6 kmh 29.98 in1015.2 mb 0.00 in0.0 mm 0.00 in0.0 mm 0.00 in0.0 mm
01:55 AM 42.8°F6.0°C 37.4°F3.0°C 81% 0.9 mph N1.4 kmh N 1.6 mph2.6 kmh 29.98 in1015.2 mb 0.00 in0.0 mm 0.00 in0.0 mm 0.00 in0.0 mm
02:00 AM 42.8°F6.0°C 37.4°F3.0°C 81% 0.7 mph N1.1 kmh N 1.6 mph2.6 kmh 29.98 in1015.2 mb 0.00 in0.0 mm 0.00 in0.0 mm 0.00 in0.0 mm
02:05 AM 42.8°F6.0°C 37.4°F3.0°C 81% 0.4 mph NW0.6 kmh NW 1.3 mph2.1 kmh 29.98 in1015.2 mb 0.00 in0.0 mm 0.00 in0.0 mm 0.00 in0.0 mm
02:10 AM 42.8°F6.0°C 37.4°F3.0°C 81% 0.2 mph WNW0.3 kmh WNW 1.3 mph2.1 kmh 29.98 in1015.2 mb 0.00 in0.0 mm 0.00 in0.0 mm 0.00 in0.0 mm
02:15 AM 42.8°F6.0°C 37.4°F3.0°C 81% Calm Calm -- 29.98 in1015.2 mb 0.00 in0.0 mm 0.00 in0.0 mm 0.00 in0.0 mm
02:20 AM 42.6°F5.9°C 37.4°F3.0°C 81% Calm Calm -- 29.98 in1015.2 mb 0.00 in0.0 mm 0.00 in0.0 mm 0.00 in0.0 mm
02:25 AM 42.6°F5.9°C 37.4°F3.0°C 81% Calm Calm -- 29.98 in1015.2 mb 0.00 in0.0 mm 0.00 in0.0 mm 0.00 in0.0 mm
02:30 AM 42.4°F5.8°C 37.4°F3.0°C 81% Calm Calm -- 29.98 in1015.2 mb 0.00 in0.0 mm 0.00 in0.0 mm 0.00 in0.0 mm
02:35 AM 42.4°F5.8°C 37.4°F3.0°C 81% Calm Calm -- 29.98 in1015.2 mb 0.00 in0.0 mm 0.00 in0.0 mm 0.00 in0.0 mm
02:40 AM 42.4°F5.8°C 37.4°F3.0°C 81% Calm Calm -- 29.98 in1015.2 mb 0.00 in0.0 mm 0.00 in0.0 mm 0.00 in0.0 mm
02:45 AM 42.3°F5.7°C 37.4°F3.0°C 81% Calm Calm -- 29.98 in1015.2 mb 0.00 in0.0 mm 0.00 in0.0 mm 0.00 in0.0 mm
02:50 AM 42.3°F5.7°C 37.4°F3.0°C 81% Calm Calm -- 29.98 in1015.2 mb 0.00 in0.0 mm 0.00 in0.0 mm 0.00 in0.0 mm
02:55 AM 42.4°F5.8°C 37.4°F3.0°C 82% 0.5 mph WSW0.8 kmh WSW 2.0 mph3.2 kmh 29.98 in1015.2 mb 0.00 in0.0 mm 0.00 in0.0 mm 0.00 in0.0 mm
03:00 AM 42.4°F5.8°C 37.4°F3.0°C 82% 1.1 mph WSW1.8 kmh WSW 2.0 mph3.2 kmh 29.98 in1015.2 mb 0.00 in0.0 mm 0.00 in0.0 mm 0.00 in0.0 mm
03:05 AM 42.4°F5.8°C 37.4°F3.0°C 82% 0.6 mph WSW1.0 kmh WSW 1.3 mph2.1 kmh 29.98 in1015.2 mb 0.00 in0.0 mm 0.00 in0.0 mm 0.00 in0.0 mm
03:10 AM 42.3°F5.7°C 37.4°F3.0°C 82% 0.3 mph SW0.5 kmh SW 1.3 mph2.1 kmh 29.98 in1015.2 mb 0.00 in0.0 mm 0.00 in0.0 mm 0.00 in0.0 mm
03:15 AM 42.3°F5.7°C 37.4°F3.0°C 82% 0.4 mph SW0.6 kmh SW 1.3 mph2.1 kmh 29.98 in1015.2 mb 0.00 in0.0 mm 0.00 in0.0 mm 0.00 in0.0 mm
03:20 AM 42.3°F5.7°C 37.4°F3.0°C 82% 0.4 mph WSW0.6 kmh WSW 1.1 mph1.8 kmh 29.98 in1015.2 mb 0.00 in0.0 mm 0.00 in0.0 mm 0.00 in0.0 mm
03:25 AM 42.3°F5.7°C 37.4°F3.0°C 82% 0.5 mph WSW0.8 kmh WSW 1.6 mph2.6 kmh 29.98 in1015.2 mb 0.00 in0.0 mm 0.00 in0.0 mm 0.00 in0.0 mm
03:30 AM 42.3°F5.7°C 37.4°F3.0°C 82% 0.7 mph WSW1.1 kmh WSW 1.6 mph2.6 kmh 29.98 in1015.2 mb 0.00 in0.0 mm 0.00 in0.0 mm 0.00 in0.0 mm
03:35 AM 42.3°F5.7°C 37.4°F3.0°C 82% 0.7 mph SW1.1 kmh SW 1.6 mph2.6 kmh 29.98 in1015.2 mb 0.00 in0.0 mm 0.00 in0.0 mm 0.00 in0.0 mm
03:40 AM 42.3°F5.7°C 37.4°F3.0°C 82% 0.6 mph SW1.0 kmh SW 1.6 mph2.6 kmh 29.98 in1015.2 mb 0.00 in0.0 mm 0.00 in0.0 mm 0.00 in0.0 mm
03:45 AM 42.1°F5.6°C 37.4°F3.0°C 82% 0.3 mph WSW0.5 kmh WSW 1.1 mph1.8 kmh 29.98 in1015.2 mb 0.00 in0.0 mm 0.00 in0.0 mm 0.00 in0.0 mm
03:50 AM 42.1°F5.6°C 37.4°F3.0°C 82% 0.5 mph WSW0.8 kmh WSW 1.1 mph1.8 kmh 29.98 in1015.2 mb 0.00 in0.0 mm 0.00 in0.0 mm 0.00 in0.0 mm
03:55 AM 42.1°F5.6°C 37.4°F3.0°C 82% 0.6 mph WSW1.0 kmh WSW 1.1 mph1.8 kmh 29.98 in1015.2 mb 0.00 in0.0 mm 0.00 in0.0 mm 0.00 in0.0 mm
04:00 AM 42.1°F5.6°C 37.4°F3.0°C 82% 0.3 mph WNW0.5 kmh WNW 0.9 mph1.4 kmh 29.98 in1015.2 mb 0.00 in0.0 mm 0.00 in0.0 mm 0.00 in0.0 mm
04:05 AM 41.9°F5.5°C 37.4°F3.0°C 82% 0.2 mph NW0.3 kmh NW 0.9 mph1.4 kmh 29.98 in1015.2 mb 0.00 in0.0 mm 0.00 in0.0 mm 0.00 in0.0 mm
04:10 AM 41.9°F5.5°C 37.4°F3.0°C 82% 0.1 mph WNW0.2 kmh WNW 0.9 mph1.4 kmh 29.98 in1015.2 mb 0.00 in0.0 mm 0.00 in0.0 mm 0.00 in0.0 mm
04:15 AM 41.9°F5.5°C 37.4°F3.0°C 82% Calm Calm -- 29.98 in1015.2 mb 0.00 in0.0 mm 0.00 in0.0 mm 0.00 in0.0 mm
04:20 AM 41.9°F5.5°C 37.4°F3.0°C 82% 0.1 mph NNW0.2 kmh NNW 0.9 mph1.4 kmh 29.98 in1015.2 mb 0.00 in0.0 mm 0.00 in0.0 mm 0.00 in0.0 mm
04:25 AM 41.9°F5.5°C 37.4°F3.0°C 82% 0.2 mph N0.3 kmh N 0.9 mph1.4 kmh 29.98 in1015.2 mb 0.00 in0.0 mm 0.00 in0.0 mm 0.00 in0.0 mm
04:30 AM 41.9°F5.5°C 37.4°F3.0°C 82% Calm Calm 0.9 mph1.4 kmh 29.98 in1015.2 mb 0.00 in0.0 mm 0.00 in0.0 mm 0.00 in0.0 mm
04:35 AM 41.9°F5.5°C 37.4°F3.0°C 82% 0.1 mph NNE0.2 kmh NNE 1.3 mph2.1 kmh 29.98 in1015.2 mb 0.00 in0.0 mm 0.00 in0.0 mm 0.00 in0.0 mm
04:40 AM 41.7°F5.4°C 37.4°F3.0°C 82% 0.3 mph NNE0.5 kmh NNE 1.3 mph2.1 kmh 29.98 in1015.2 mb 0.00 in0.0 mm 0.00 in0.0 mm 0.00 in0.0 mm
04:45 AM 41.7°F5.4°C 37.4°F3.0°C 82% 0.3 mph NNE0.5 kmh NNE 1.3 mph2.1 kmh 29.98 in1015.2 mb 0.00 in0.0 mm 0.00 in0.0 mm 0.00 in0.0 mm
04:50 AM 41.7°F5.4°C 37.4°F3.0°C 82% 0.1 mph NE0.2 kmh NE 1.1 mph1.8 kmh 29.98 in1015.2 mb 0.00 in0.0 mm 0.00 in0.0 mm 0.00 in0.0 mm
04:55 AM 41.7°F5.4°C 37.4°F3.0°C 82% 0.3 mph NE0.5 kmh NE 1.3 mph2.1 kmh 29.98 in1015.2 mb 0.00 in0.0 mm 0.00 in0.0 mm 0.00 in0.0 mm
05:00 AM 41.9°F5.5°C 37.4°F3.0°C 82% 0.3 mph NE0.5 kmh NE 1.3 mph2.1 kmh 29.98 in1015.2 mb 0.00 in0.0 mm 0.00 in0.0 mm 0.00 in0.0 mm
05:05 AM 41.7°F5.4°C 37.4°F3.0°C 82% 0.1 mph NE0.2 kmh NE 1.3 mph2.1 kmh 29.98 in1015.2 mb 0.00 in0.0 mm 0.00 in0.0 mm 0.00 in0.0 mm
05:10 AM 41.5°F5.3°C 37.4°F3.0°C 82% 0.2 mph NE0.3 kmh NE 1.1 mph1.8 kmh 29.98 in1015.2 mb 0.00 in0.0 mm 0.00 in0.0 mm 0.00 in0.0 mm
05:15 AM 41.5°F5.3°C 37.4°F3.0°C 82% 0.4 mph NE0.6 kmh NE 1.3 mph2.1 kmh 29.98 in1015.2 mb 0.00 in0.0 mm 0.00 in0.0 mm 0.00 in0.0 mm
05:20 AM 41.7°F5.4°C 37.4°F3.0°C 82% 0.5 mph NE0.8 kmh NE 1.3 mph2.1 kmh 29.98 in1015.2 mb 0.00 in0.0 mm 0.00 in0.0 mm 0.00 in0.0 mm
05:25 AM 41.7°F5.4°C 37.4°F3.0°C 82% 0.2 mph NE0.3 kmh NE 1.1 mph1.8 kmh 29.98 in1015.2 mb 0.00 in0.0 mm 0.00 in0.0 mm 0.00 in0.0 mm
05:30 AM 41.5°F5.3°C 37.4°F3.0°C 82% 0.1 mph NNW0.2 kmh NNW 0.9 mph1.4 kmh 29.98 in1015.2 mb 0.00 in0.0 mm 0.00 in0.0 mm 0.00 in0.0 mm
05:35 AM 41.5°F5.3°C 37.4°F3.0°C 82% 0.2 mph WNW0.3 kmh WNW 1.1 mph1.8 kmh 29.98 in1015.2 mb 0.00 in0.0 mm 0.00 in0.0 mm 0.00 in0.0 mm
05:40 AM 41.5°F5.3°C 37.4°F3.0°C 82% 0.1 mph WSW0.2 kmh WSW 1.1 mph1.8 kmh 29.98 in1015.2 mb 0.00 in0.0 mm 0.00 in0.0 mm 0.00 in0.0 mm
05:45 AM 41.5°F5.3°C 37.4°F3.0°C 82% Calm Calm -- 29.98 in1015.2 mb 0.00 in0.0 mm 0.00 in0.0 mm 0.00 in0.0 mm
05:50 AM 41.5°F5.3°C 37.4°F3.0°C 82% Calm Calm -- 29.98 in1015.2 mb 0.00 in0.0 mm 0.00 in0.0 mm 0.00 in0.0 mm
05:55 AM 41.5°F5.3°C 37.4°F3.0°C 82% Calm Calm -- 29.98 in1015.2 mb 0.00 in0.0 mm 0.00 in0.0 mm 0.00 in0.0 mm
06:00 AM 41.4°F5.2°C 37.4°F3.0°C 82% Calm Calm -- 29.98 in1015.2 mb 0.00 in0.0 mm 0.00 in0.0 mm 0.00 in0.0 mm
06:05 AM 41.4°F5.2°C 37.4°F3.0°C 82% 0.1 mph WSW0.2 kmh WSW 0.9 mph1.4 kmh 29.98 in1015.2 mb 0.00 in0.0 mm 0.00 in0.0 mm 0.00 in0.0 mm
06:10 AM 41.4°F5.2°C 37.4°F3.0°C 82% 0.2 mph NE0.3 kmh NE 1.1 mph1.8 kmh 29.98 in1015.2 mb 0.00 in0.0 mm 0.00 in0.0 mm 0.00 in0.0 mm
06:15 AM 41.5°F5.3°C 37.4°F3.0°C 82% 0.7 mph NE1.1 kmh NE 2.0 mph3.2 kmh 29.98 in1015.2 mb 0.00 in0.0 mm 0.00 in0.0 mm 0.00 in0.0 mm
06:20 AM 41.5°F5.3°C 37.4°F3.0°C 82% 1.7 mph NE2.7 kmh NE 3.4 mph5.5 kmh 29.98 in1015.2 mb 0.00 in0.0 mm 0.00 in0.0 mm 0.00 in0.0 mm
06:25 AM 41.5°F5.3°C 37.4°F3.0°C 82% 2.7 mph ENE4.3 kmh ENE 4.5 mph7.2 kmh 29.98 in1015.2 mb 0.00 in0.0 mm 0.00 in0.0 mm 0.00 in0.0 mm
06:30 AM 41.7°F5.4°C 37.4°F3.0°C 82% 3.6 mph NE5.8 kmh NE 4.7 mph7.6 kmh 29.98 in1015.2 mb 0.00 in0.0 mm 0.00 in0.0 mm 0.00 in0.0 mm
06:35 AM 41.7°F5.4°C 37.4°F3.0°C 82% 3.4 mph NE5.5 kmh NE 4.7 mph7.6 kmh 29.98 in1015.2 mb 0.00 in0.0 mm 0.00 in0.0 mm 0.00 in0.0 mm
06:40 AM 41.5°F5.3°C 37.4°F3.0°C 82% 2.5 mph NW4.0 kmh NW 4.9 mph7.9 kmh 29.98 in1015.2 mb 0.00 in0.0 mm 0.00 in0.0 mm 0.00 in0.0 mm
06:45 AM 41.7°F5.4°C 37.4°F3.0°C 82% 2.0 mph WSW3.2 kmh WSW 4.9 mph7.9 kmh 29.98 in1015.2 mb 0.00 in0.0 mm 0.00 in0.0 mm 0.00 in0.0 mm
06:50 AM 41.5°F5.3°C 37.4°F3.0°C 82% 1.3 mph WSW2.1 kmh WSW 2.7 mph4.3 kmh 29.98 in1015.2 mb 0.00 in0.0 mm 0.00 in0.0 mm 0.00 in0.0 mm
06:55 AM 41.7°F5.4°C 37.4°F3.0°C 82% 0.6 mph SW1.0 kmh SW 2.0 mph3.2 kmh 29.98 in1015.2 mb 0.00 in0.0 mm 0.00 in0.0 mm 0.00 in0.0 mm
07:00 AM 41.5°F5.3°C 37.4°F3.0°C 82% Calm Calm -- 29.98 in1015.2 mb 0.00 in0.0 mm 0.00 in0.0 mm 0.00 in0.0 mm
07:05 AM 41.5°F5.3°C 37.4°F3.0°C 82% Calm Calm -- 29.98 in1015.2 mb 0.00 in0.0 mm 0.00 in0.0 mm 0.00 in0.0 mm
07:10 AM 41.5°F5.3°C 37.4°F3.0°C 82% Calm Calm -- 29.98 in1015.2 mb 0.00 in0.0 mm 0.00 in0.0 mm 0.00 in0.0 mm
07:15 AM 41.7°F5.4°C 37.4°F3.0°C 82% Calm Calm -- 29.98 in1015.2 mb 0.00 in0.0 mm 0.00 in0.0 mm 0.00 in0.0 mm
07:20 AM 41.5°F5.3°C 37.4°F3.0°C 82% Calm Calm -- 29.98 in1015.2 mb 0.00 in0.0 mm 0.00 in0.0 mm 0.00 in0.0 mm
07:25 AM 41.7°F5.4°C 37.4°F3.0°C 82% 0.3 mph SE0.5 kmh SE 1.1 mph1.8 kmh 29.98 in1015.2 mb 0.00 in0.0 mm 0.00 in0.0 mm 0.00 in0.0 mm
07:30 AM 41.7°F5.4°C 37.4°F3.0°C 82% 0.3 mph SE0.5 kmh SE 1.1 mph1.8 kmh 29.98 in1015.2 mb 0.00 in0.0 mm 0.00 in0.0 mm 0.00 in0.0 mm
07:35 AM 41.9°F5.5°C 37.4°F3.0°C 82% Calm Calm -- 29.98 in1015.2 mb 0.00 in0.0 mm 0.00 in0.0 mm 0.00 in0.0 mm
07:40 AM 41.9°F5.5°C 37.4°F3.0°C 82% Calm Calm -- 29.98 in1015.2 mb 0.00 in0.0 mm 0.00 in0.0 mm 0.00 in0.0 mm
07:45 AM 42.1°F5.6°C 37.4°F3.0°C 82% 0.5 mph WSW0.8 kmh WSW 2.5 mph4.0 kmh 29.98 in1015.2 mb 0.00 in0.0 mm 0.00 in0.0 mm 0.00 in0.0 mm
07:50 AM 42.3°F5.7°C 37.4°F3.0°C 82% 1.1 mph W1.8 kmh W 2.5 mph4.0 kmh 29.98 in1015.2 mb 0.00 in0.0 mm 0.00 in0.0 mm 0.00 in0.0 mm
07:55 AM 42.3°F5.7°C 37.4°F3.0°C 82% 1.0 mph W1.6 kmh W 2.5 mph4.0 kmh 30.01 in1016.3 mb 0.00 in0.0 mm 0.00 in0.0 mm 0.00 in0.0 mm
08:00 AM 42.3°F5.7°C 37.4°F3.0°C 82% 0.8 mph WSW1.3 kmh WSW 1.3 mph2.1 kmh 30.01 in1016.3 mb 0.00 in0.0 mm 0.00 in0.0 mm 0.00 in0.0 mm
08:05 AM 42.3°F5.7°C 37.4°F3.0°C 82% 0.6 mph WSW1.0 kmh WSW 1.3 mph2.1 kmh 30.01 in1016.3 mb 0.00 in0.0 mm 0.00 in0.0 mm 0.00 in0.0 mm
08:10 AM 42.4°F5.8°C 37.4°F3.0°C 82% 0.1 mph WNW0.2 kmh WNW 0.9 mph1.4 kmh 30.01 in1016.3 mb 0.00 in0.0 mm 0.00 in0.0 mm 0.00 in0.0 mm
08:15 AM 42.4°F5.8°C 37.4°F3.0°C 82% Calm Calm -- 30.01 in1016.3 mb 0.00 in0.0 mm 0.00 in0.0 mm 0.00 in0.0 mm
08:20 AM 42.6°F5.9°C 37.4°F3.0°C 82% 0.2 mph WNW0.3 kmh WNW 1.3 mph2.1 kmh 30.01 in1016.3 mb 0.00 in0.0 mm 0.00 in0.0 mm 0.00 in0.0 mm
08:25 AM 42.6°F5.9°C 37.4°F3.0°C 82% 0.3 mph WNW0.5 kmh WNW 1.3 mph2.1 kmh 30.01 in1016.3 mb 0.00 in0.0 mm 0.00 in0.0 mm 0.00 in0.0 mm
08:30 AM 42.8°F6.0°C 37.4°F3.0°C 81% 0.6 mph WSW1.0 kmh WSW 2.2 mph3.5 kmh 30.01 in1016.3 mb 0.00 in0.0 mm 0.00 in0.0 mm 0.00 in0.0 mm
08:35 AM 42.8°F6.0°C 37.4°F3.0°C 81% 0.7 mph SW1.1 kmh SW 2.2 mph3.5 kmh 30.01 in1016.3 mb 0.00 in0.0 mm 0.00 in0.0 mm 0.00 in0.0 mm
08:40 AM 43.0°F6.1°C 37.4°F3.0°C 81% 0.7 mph E1.1 kmh E 2.5 mph4.0 kmh 30.01 in1016.3 mb 0.00 in0.0 mm 0.00 in0.0 mm 0.00 in0.0 mm
08:45 AM 43.2°F6.2°C 39.2°F4.0°C 82% 1.0 mph ENE1.6 kmh ENE 2.5 mph4.0 kmh 30.01 in1016.3 mb 0.00 in0.0 mm 0.00 in0.0 mm 0.00 in0.0 mm
08:50 AM 43.3°F6.3°C 37.4°F3.0°C 81% 0.7 mph NE1.1 kmh NE 1.6 mph2.6 kmh 30.01 in1016.3 mb 0.00 in0.0 mm 0.00 in0.0 mm 0.00 in0.0 mm
08:55 AM 43.3°F6.3°C 37.4°F3.0°C 81% 0.5 mph SSW0.8 kmh SSW 1.1 mph1.8 kmh 30.01 in1016.3 mb 0.00 in0.0 mm 0.00 in0.0 mm 0.00 in0.0 mm
09:00 AM 43.5°F6.4°C 37.4°F3.0°C 81% 0.6 mph SSW1.0 kmh SSW 1.1 mph1.8 kmh 30.01 in1016.3 mb 0.00 in0.0 mm 0.00 in0.0 mm 0.00 in0.0 mm
09:05 AM 43.5°F6.4°C 37.4°F3.0°C 81% 0.3 mph S0.5 kmh S 0.9 mph1.4 kmh 30.01 in1016.3 mb 0.00 in0.0 mm 0.00 in0.0 mm 0.00 in0.0 mm
09:10 AM 43.7°F6.5°C 39.2°F4.0°C 81% 0.3 mph E0.5 kmh E 0.9 mph1.4 kmh 30.01 in1016.3 mb 0.00 in0.0 mm 0.00 in0.0 mm 0.00 in0.0 mm
09:15 AM 43.7°F6.5°C 39.2°F4.0°C 81% 0.2 mph E0.3 kmh E 0.9 mph1.4 kmh 30.01 in1016.3 mb 0.00 in0.0 mm 0.00 in0.0 mm 0.00 in0.0 mm
09:20 AM 43.7°F6.5°C 39.2°F4.0°C 81% 0.2 mph SE0.3 kmh SE 0.9 mph1.4 kmh 30.01 in1016.3 mb 0.00 in0.0 mm 0.00 in0.0 mm 0.00 in0.0 mm
09:25 AM 43.9°F6.6°C 39.2°F4.0°C 81% 0.3 mph SE0.5 kmh SE 1.1 mph1.8 kmh 30.04 in1017.3 mb 0.00 in0.0 mm 0.00 in0.0 mm 0.00 in0.0 mm
09:30 AM 43.9°F6.6°C 39.2°F4.0°C 81% 0.1 mph ESE0.2 kmh ESE 1.1 mph1.8 kmh 30.04 in1017.3 mb 0.00 in0.0 mm 0.00 in0.0 mm 0.00 in0.0 mm
09:35 AM 43.9°F6.6°C 39.2°F4.0°C 81% Calm Calm -- 30.04 in1017.3 mb 0.00 in0.0 mm 0.00 in0.0 mm 0.00 in0.0 mm
09:40 AM 43.9°F6.6°C 39.2°F4.0°C 81% Calm Calm -- 30.04 in1017.3 mb 0.00 in0.0 mm 0.00 in0.0 mm 0.00 in0.0 mm
09:45 AM 44.1°F6.7°C 39.2°F4.0°C 81% Calm Calm -- 30.04 in1017.3 mb 0.00 in0.0 mm 0.00 in0.0 mm 0.00 in0.0 mm
09:50 AM 44.2°F6.8°C 39.2°F4.0°C 81% Calm Calm -- 30.04 in1017.3 mb 0.00 in0.0 mm 0.00 in0.0 mm 0.00 in0.0 mm
09:55 AM 44.2°F6.8°C 39.2°F4.0°C 81% Calm Calm -- 30.04 in1017.3 mb 0.00 in0.0 mm 0.00 in0.0 mm 0.00 in0.0 mm
10:00 AM 44.4°F6.9°C 39.2°F4.0°C 81% 0.2 mph ESE0.3 kmh ESE 1.3 mph2.1 kmh 30.04 in1017.3 mb 0.00 in0.0 mm 0.00 in0.0 mm 0.00 in0.0 mm
10:05 AM 44.4°F6.9°C 39.2°F4.0°C 81% 0.2 mph ESE0.3 kmh ESE 1.3 mph2.1 kmh 30.04 in1017.3 mb 0.00 in0.0 mm 0.00 in0.0 mm 0.00 in0.0 mm
10:10 AM 44.6°F7.0°C 39.2°F4.0°C 81% 0.2 mph SE0.3 kmh SE 1.3 mph2.1 kmh 30.04 in1017.3 mb 0.00 in0.0 mm 0.00 in0.0 mm 0.00 in0.0 mm
10:15 AM 44.6°F7.0°C 39.2°F4.0°C 80% 0.1 mph SE0.2 kmh SE 1.3 mph2.1 kmh 30.04 in1017.3 mb 0.00 in0.0 mm 0.00 in0.0 mm 0.00 in0.0 mm
10:20 AM 44.6°F7.0°C 39.2°F4.0°C 80% 0.2 mph S0.3 kmh S 1.3 mph2.1 kmh 30.04 in1017.3 mb 0.00 in0.0 mm 0.00 in0.0 mm 0.00 in0.0 mm
10:25 AM 44.8°F7.1°C 39.2°F4.0°C 80% 0.2 mph SSE0.3 kmh SSE 1.3 mph2.1 kmh 30.04 in1017.3 mb 0.00 in0.0 mm 0.00 in0.0 mm 0.00 in0.0 mm
10:30 AM 45.0°F7.2°C 39.2°F4.0°C 80% 0.1 mph SE0.2 kmh SE 0.9 mph1.4 kmh 30.04 in1017.3 mb 0.00 in0.0 mm 0.00 in0.0 mm 0.00 in0.0 mm
10:35 AM 45.0°F7.2°C 39.2°F4.0°C 80% 0.1 mph SE0.2 kmh SE 1.1 mph1.8 kmh 30.04 in1017.3 mb 0.00 in0.0 mm 0.00 in0.0 mm 0.00 in0.0 mm
10:40 AM 45.3°F7.4°C 39.2°F4.0°C 80% 0.7 mph E1.1 kmh E 3.4 mph5.5 kmh 30.04 in1017.3 mb 0.00 in0.0 mm 0.00 in0.0 mm 0.00 in0.0 mm
10:45 AM 45.5°F7.5°C 41.0°F5.0°C 80% 0.7 mph E1.1 kmh E 3.4 mph5.5 kmh 30.04 in1017.3 mb 0.00 in0.0 mm 0.00 in0.0 mm 0.00 in0.0 mm
10:50 AM 45.7°F7.6°C 41.0°F5.0°C 80% 0.4 mph E0.6 kmh E 1.1 mph1.8 kmh 30.04 in1017.3 mb 0.00 in0.0 mm 0.00 in0.0 mm 0.00 in0.0 mm
10:55 AM 46.0°F7.8°C 41.0°F5.0°C 80% 0.7 mph E1.1 kmh E 1.3 mph2.1 kmh 30.04 in1017.3 mb 0.00 in0.0 mm 0.00 in0.0 mm 0.00 in0.0 mm
11:00 AM 46.4°F8.0°C 41.0°F5.0°C 80% 0.8 mph E1.3 kmh E 1.3 mph2.1 kmh 30.04 in1017.3 mb 0.00 in0.0 mm 0.00 in0.0 mm 0.00 in0.0 mm
11:05 AM 46.6°F8.1°C 41.0°F5.0°C 80% 0.9 mph E1.4 kmh E 2.9 mph4.7 kmh 30.04 in1017.3 mb 0.00 in0.0 mm 0.00 in0.0 mm 0.00 in0.0 mm
11:10 AM 46.6°F8.1°C 41.0°F5.0°C 80% 1.2 mph E1.9 kmh E 2.9 mph4.7 kmh 30.04 in1017.3 mb 0.00 in0.0 mm 0.00 in0.0 mm 0.00 in0.0 mm
11:15 AM 46.8°F8.2°C 41.0°F5.0°C 79% 1.5 mph E2.4 kmh E 2.9 mph4.7 kmh 30.04 in1017.3 mb 0.00 in0.0 mm 0.00 in0.0 mm 0.00 in0.0 mm
11:20 AM 46.9°F8.3°C 41.0°F5.0°C 79% 2.0 mph E3.2 kmh E 4.7 mph7.6 kmh 30.04 in1017.3 mb 0.00 in0.0 mm 0.00 in0.0 mm 0.00 in0.0 mm
11:25 AM 47.3°F8.5°C 42.8°F6.0°C 79% 1.7 mph E2.7 kmh E 4.7 mph7.6 kmh 30.04 in1017.3 mb 0.00 in0.0 mm 0.00 in0.0 mm 0.00 in0.0 mm
11:30 AM 47.3°F8.5°C 42.8°F6.0°C 79% 1.1 mph SE1.8 kmh SE 3.1 mph5.0 kmh 30.04 in1017.3 mb 0.00 in0.0 mm 0.00 in0.0 mm 0.00 in0.0 mm
11:35 AM 47.5°F8.6°C 41.0°F5.0°C 78% 0.9 mph SSE1.4 kmh SSE 3.1 mph5.0 kmh 30.04 in1017.3 mb 0.00 in0.0 mm 0.00 in0.0 mm 0.00 in0.0 mm
11:40 AM 47.3°F8.5°C 41.0°F5.0°C 78% 0.8 mph SE1.3 kmh SE 4.7 mph7.6 kmh 30.04 in1017.3 mb 0.00 in0.0 mm 0.00 in0.0 mm 0.00 in0.0 mm
11:45 AM 47.3°F8.5°C 41.0°F5.0°C 78% 1.5 mph SE2.4 kmh SE 4.7 mph7.6 kmh 30.04 in1017.3 mb 0.00 in0.0 mm 0.00 in0.0 mm 0.00 in0.0 mm
11:50 AM 47.3°F8.5°C 41.0°F5.0°C 78% 1.4 mph SE2.3 kmh SE 4.7 mph7.6 kmh 30.04 in1017.3 mb 0.00 in0.0 mm 0.00 in0.0 mm 0.00 in0.0 mm
11:55 AM 47.3°F8.5°C 41.0°F5.0°C 78% 1.3 mph S2.1 kmh S 2.9 mph4.7 kmh 30.04 in1017.3 mb 0.00 in0.0 mm 0.00 in0.0 mm 0.00 in0.0 mm
12:00 PM 47.5°F8.6°C 41.0°F5.0°C 78% 1.5 mph S2.4 kmh S 3.6 mph5.8 kmh 30.04 in1017.3 mb 0.00 in0.0 mm 0.00 in0.0 mm 0.00 in0.0 mm
12:05 PM 47.3°F8.5°C 41.0°F5.0°C 78% 1.3 mph S2.1 kmh S 3.6 mph5.8 kmh 30.04 in1017.3 mb 0.00 in0.0 mm 0.00 in0.0 mm 0.00 in0.0 mm
12:10 PM 47.5°F8.6°C 41.0°F5.0°C 78% 1.4 mph SSW2.3 kmh SSW 3.6 mph5.8 kmh 30.04 in1017.3 mb 0.00 in0.0 mm 0.00 in0.0 mm 0.00 in0.0 mm
12:15 PM 47.3°F8.5°C 41.0°F5.0°C 78% 1.8 mph SW2.9 kmh SW 5.4 mph8.7 kmh 30.04 in1017.3 mb 0.00 in0.0 mm 0.00 in0.0 mm 0.00 in0.0 mm
12:20 PM 47.3°F8.5°C 41.0°F5.0°C 78% 2.6 mph SSW4.2 kmh SSW 5.4 mph8.7 kmh 30.04 in1017.3 mb 0.00 in0.0 mm 0.00 in0.0 mm 0.00 in0.0 mm
12:25 PM 47.1°F8.4°C 41.0°F5.0°C 78% 2.4 mph SSW3.9 kmh SSW 4.3 mph6.9 kmh 30.04 in1017.3 mb 0.00 in0.0 mm 0.00 in0.0 mm 0.00 in0.0 mm
12:30 PM 47.1°F8.4°C 41.0°F5.0°C 78% 2.0 mph SSW3.2 kmh SSW 4.3 mph6.9 kmh 30.04 in1017.3 mb 0.00 in0.0 mm 0.00 in0.0 mm 0.00 in0.0 mm
12:35 PM 46.9°F8.3°C 41.0°F5.0°C 78% 0.9 mph S1.4 kmh S 3.4 mph5.5 kmh 30.04 in1017.3 mb 0.00 in0.0 mm 0.00 in0.0 mm 0.00 in0.0 mm
12:40 PM 47.3°F8.5°C 41.0°F5.0°C 78% 0.7 mph S1.1 kmh S 2.7 mph4.3 kmh 30.04 in1017.3 mb 0.00 in0.0 mm 0.00 in0.0 mm 0.00 in0.0 mm
12:45 PM 47.5°F8.6°C 41.0°F5.0°C 78% 0.8 mph S1.3 kmh S 2.7 mph4.3 kmh 30.04 in1017.3 mb 0.00 in0.0 mm 0.00 in0.0 mm 0.00 in0.0 mm
12:50 PM 47.7°F8.7°C 41.0°F5.0°C 77% 0.7 mph SE1.1 kmh SE 2.7 mph4.3 kmh 30.04 in1017.3 mb 0.00 in0.0 mm 0.00 in0.0 mm 0.00 in0.0 mm
12:55 PM 47.8°F8.8°C 42.8°F6.0°C 77% 0.7 mph S1.1 kmh S 2.9 mph4.7 kmh 30.04 in1017.3 mb 0.00 in0.0 mm 0.00 in0.0 mm 0.00 in0.0 mm
01:00 PM 48.0°F8.9°C 42.8°F6.0°C 77% 1.0 mph S1.6 kmh S 2.9 mph4.7 kmh 30.04 in1017.3 mb 0.00 in0.0 mm 0.00 in0.0 mm 0.00 in0.0 mm
01:05 PM 48.2°F9.0°C 42.8°F6.0°C 77% 0.9 mph S1.4 kmh S 2.2 mph3.5 kmh 30.04 in1017.3 mb 0.00 in0.0 mm 0.00 in0.0 mm 0.00 in0.0 mm
01:10 PM 48.4°F9.1°C 42.8°F6.0°C 77% 0.6 mph S1.0 kmh S 2.0 mph3.2 kmh 30.04 in1017.3 mb 0.00 in0.0 mm 0.00 in0.0 mm 0.00 in0.0 mm
01:15 PM 48.4°F9.1°C 42.8°F6.0°C 77% 0.6 mph SE1.0 kmh SE 2.9 mph4.7 kmh 30.04 in1017.3 mb 0.00 in0.0 mm 0.00 in0.0 mm 0.00 in0.0 mm
01:20 PM 48.4°F9.1°C 42.8°F6.0°C 77% 0.5 mph SE0.8 kmh SE 2.9 mph4.7 kmh 30.04 in1017.3 mb 0.00 in0.0 mm 0.00 in0.0 mm 0.00 in0.0 mm
01:25 PM 48.6°F9.2°C 42.8°F6.0°C 77% 0.9 mph SSW1.4 kmh SSW 3.4 mph5.5 kmh 30.01 in1016.3 mb 0.00 in0.0 mm 0.00 in0.0 mm 0.00 in0.0 mm
01:30 PM 48.6°F9.2°C 42.8°F6.0°C 76% 0.8 mph SSW1.3 kmh SSW 3.4 mph5.5 kmh 30.01 in1016.3 mb 0.00 in0.0 mm 0.00 in0.0 mm 0.00 in0.0 mm
01:35 PM 48.9°F9.4°C 42.8°F6.0°C 76% 0.3 mph SSE0.5 kmh SSE 2.5 mph4.0 kmh 30.01 in1016.3 mb 0.00 in0.0 mm 0.00 in0.0 mm 0.00 in0.0 mm
01:40 PM 48.9°F9.4°C 42.8°F6.0°C 76% 1.3 mph S2.1 kmh S 2.7 mph4.3 kmh 30.01 in1016.3 mb 0.00 in0.0 mm 0.00 in0.0 mm 0.00 in0.0 mm
01:45 PM 48.9°F9.4°C 42.8°F6.0°C 76% 1.2 mph S1.9 kmh S 2.7 mph4.3 kmh 30.01 in1016.3 mb 0.00 in0.0 mm 0.00 in0.0 mm 0.00 in0.0 mm
01:50 PM 49.6°F9.8°C 42.8°F6.0°C 76% 1.0 mph S1.6 kmh S 2.5 mph4.0 kmh 30.01 in1016.3 mb 0.00 in0.0 mm 0.00 in0.0 mm 0.00 in0.0 mm
01:55 PM 49.3°F9.6°C 42.8°F6.0°C 75% 1.2 mph SSE1.9 kmh SSE 2.5 mph4.0 kmh 30.01 in1016.3 mb 0.00 in0.0 mm 0.00 in0.0 mm 0.00 in0.0 mm
02:00 PM 49.3°F9.6°C 42.8°F6.0°C 76% 1.3 mph S2.1 kmh S 2.5 mph4.0 kmh 30.01 in1016.3 mb 0.00 in0.0 mm 0.00 in0.0 mm 0.00 in0.0 mm
02:05 PM 48.7°F9.3°C 42.8°F6.0°C 75% 1.0 mph SSW1.6 kmh SSW 2.5 mph4.0 kmh 30.01 in1016.3 mb 0.00 in0.0 mm 0.00 in0.0 mm 0.00 in0.0 mm
02:10 PM 49.3°F9.6°C 42.8°F6.0°C 76% 1.3 mph SSE2.1 kmh SSE 4.7 mph7.6 kmh 30.01 in1016.3 mb 0.00 in0.0 mm 0.00 in0.0 mm 0.00 in0.0 mm
02:15 PM 50.0°F10.0°C 42.8°F6.0°C 75% 1.4 mph SSE2.3 kmh SSE 4.7 mph7.6 kmh 30.01 in1016.3 mb 0.00 in0.0 mm 0.00 in0.0 mm 0.00 in0.0 mm
02:20 PM 50.2°F10.1°C 42.8°F6.0°C 75% 1.0 mph SE1.6 kmh SE 2.7 mph4.3 kmh 30.01 in1016.3 mb 0.00 in0.0 mm 0.00 in0.0 mm 0.00 in0.0 mm
02:25 PM 49.8°F9.9°C 42.8°F6.0°C 75% 1.1 mph ESE1.8 kmh ESE 2.7 mph4.3 kmh 29.98 in1015.2 mb 0.00 in0.0 mm 0.00 in0.0 mm 0.00 in0.0 mm
02:30 PM 49.6°F9.8°C 42.8°F6.0°C 75% 1.2 mph SE1.9 kmh SE 2.7 mph4.3 kmh 29.98 in1015.2 mb 0.00 in0.0 mm 0.00 in0.0 mm 0.00 in0.0 mm
02:35 PM 50.0°F10.0°C 42.8°F6.0°C 75% 1.3 mph SE2.1 kmh SE 2.9 mph4.7 kmh 29.98 in1015.2 mb 0.00 in0.0 mm 0.00 in0.0 mm 0.00 in0.0 mm
02:40 PM 50.4°F10.2°C 42.8°F6.0°C 75% 1.5 mph SSE2.4 kmh SSE 2.9 mph4.7 kmh 29.98 in1015.2 mb 0.00 in0.0 mm 0.00 in0.0 mm 0.00 in0.0 mm
02:45 PM 49.8°F9.9°C 42.8°F6.0°C 75% 2.0 mph SSE3.2 kmh SSE 2.9 mph4.7 kmh 29.98 in1015.2 mb 0.00 in0.0 mm 0.00 in0.0 mm 0.00 in0.0 mm
02:50 PM 49.6°F9.8°C 42.8°F6.0°C 75% 1.4 mph SSE2.3 kmh SSE 2.7 mph4.3 kmh 29.98 in1015.2 mb 0.00 in0.0 mm 0.00 in0.0 mm 0.00 in0.0 mm
02:55 PM 49.5°F9.7°C 42.8°F6.0°C 75% 1.2 mph SE1.9 kmh SE 2.5 mph4.0 kmh 29.98 in1015.2 mb 0.00 in0.0 mm 0.00 in0.0 mm 0.00 in0.0 mm
03:00 PM 49.5°F9.7°C 42.8°F6.0°C 75% 1.7 mph ESE2.7 kmh ESE 2.7 mph4.3 kmh 29.98 in1015.2 mb 0.00 in0.0 mm 0.00 in0.0 mm 0.00 in0.0 mm
03:05 PM 49.5°F9.7°C 42.8°F6.0°C 75% 1.8 mph SE2.9 kmh SE 2.9 mph4.7 kmh 29.98 in1015.2 mb 0.00 in0.0 mm 0.00 in0.0 mm 0.00 in0.0 mm
03:10 PM 49.3°F9.6°C 42.8°F6.0°C 75% 1.5 mph SSE2.4 kmh SSE 3.6 mph5.8 kmh 29.98 in1015.2 mb 0.00 in0.0 mm 0.00 in0.0 mm 0.00 in0.0 mm
03:15 PM 49.3°F9.6°C 42.8°F6.0°C 75% 1.5 mph S2.4 kmh S 3.6 mph5.8 kmh 29.98 in1015.2 mb 0.00 in0.0 mm 0.00 in0.0 mm 0.00 in0.0 mm
03:20 PM 49.1°F9.5°C 42.8°F6.0°C 75% 1.8 mph S2.9 kmh S 3.6 mph5.8 kmh 29.98 in1015.2 mb 0.00 in0.0 mm 0.00 in0.0 mm 0.00 in0.0 mm
03:25 PM 48.9°F9.4°C 42.8°F6.0°C 75% 2.3 mph S3.7 kmh S 3.6 mph5.8 kmh 29.98 in1015.2 mb 0.00 in0.0 mm 0.00 in0.0 mm 0.00 in0.0 mm
03:30 PM 48.9°F9.4°C 42.8°F6.0°C 75% 1.9 mph SSE3.1 kmh SSE 3.4 mph5.5 kmh 29.98 in1015.2 mb 0.00 in0.0 mm 0.00 in0.0 mm 0.00 in0.0 mm
03:35 PM 48.7°F9.3°C 42.8°F6.0°C 75% 1.8 mph S2.9 kmh S 3.6 mph5.8 kmh 29.98 in1015.2 mb 0.00 in0.0 mm 0.00 in0.0 mm 0.00 in0.0 mm
03:40 PM 48.6°F9.2°C 42.8°F6.0°C 75% 2.8 mph S4.5 kmh S 5.6 mph9.0 kmh 29.98 in1015.2 mb 0.00 in0.0 mm 0.00 in0.0 mm 0.00 in0.0 mm
03:45 PM 48.6°F9.2°C 42.8°F6.0°C 75% 2.9 mph S4.7 kmh S 5.6 mph9.0 kmh 29.98 in1015.2 mb 0.00 in0.0 mm 0.00 in0.0 mm 0.00 in0.0 mm
03:50 PM 48.6°F9.2°C 42.8°F6.0°C 76% 2.5 mph S4.0 kmh S 3.6 mph5.8 kmh 29.98 in1015.2 mb 0.00 in0.0 mm 0.00 in0.0 mm 0.00 in0.0 mm
03:55 PM 48.6°F9.2°C 42.8°F6.0°C 76% 2.5 mph S4.0 kmh S 5.4 mph8.7 kmh 29.98 in1015.2 mb 0.00 in0.0 mm 0.00 in0.0 mm 0.00 in0.0 mm
04:00 PM 48.4°F9.1°C 41.0°F5.0°C 76% 2.9 mph S4.7 kmh S 5.4 mph8.7 kmh 29.98 in1015.2 mb 0.00 in0.0 mm 0.00 in0.0 mm 0.00 in0.0 mm
04:05 PM 48.4°F9.1°C 41.0°F5.0°C 76% 2.2 mph S3.5 kmh S 4.0 mph6.4 kmh 29.98 in1015.2 mb 0.00 in0.0 mm 0.00 in0.0 mm 0.00 in0.0 mm
04:10 PM 48.2°F9.0°C 41.0°F5.0°C 76% 2.2 mph SSW3.5 kmh SSW 4.0 mph6.4 kmh 29.98 in1015.2 mb 0.00 in0.0 mm 0.00 in0.0 mm 0.00 in0.0 mm
04:15 PM 48.2°F9.0°C 41.0°F5.0°C 76% 2.5 mph S4.0 kmh S 4.0 mph6.4 kmh 29.98 in1015.2 mb 0.00 in0.0 mm 0.00 in0.0 mm 0.00 in0.0 mm
04:20 PM 48.0°F8.9°C 41.0°F5.0°C 76% 2.2 mph S3.5 kmh S 5.8 mph9.3 kmh 29.98 in1015.2 mb 0.00 in0.0 mm 0.00 in0.0 mm 0.00 in0.0 mm
04:25 PM 48.0°F8.9°C 41.0°F5.0°C 76% 2.4 mph S3.9 kmh S 5.8 mph9.3 kmh 29.98 in1015.2 mb 0.00 in0.0 mm 0.00 in0.0 mm 0.00 in0.0 mm
04:30 PM 47.8°F8.8°C 41.0°F5.0°C 76% 2.6 mph S4.2 kmh S 5.8 mph9.3 kmh 29.98 in1015.2 mb 0.00 in0.0 mm 0.00 in0.0 mm 0.00 in0.0 mm
04:35 PM 47.8°F8.8°C 41.0°F5.0°C 76% 1.7 mph S2.7 kmh S 5.8 mph9.3 kmh 29.98 in1015.2 mb 0.00 in0.0 mm 0.00 in0.0 mm 0.00 in0.0 mm
04:40 PM 47.7°F8.7°C 41.0°F5.0°C 77% 0.9 mph SSE1.4 kmh SSE 3.1 mph5.0 kmh 29.98 in1015.2 mb 0.00 in0.0 mm 0.00 in0.0 mm 0.00 in0.0 mm
04:45 PM 47.7°F8.7°C 41.0°F5.0°C 77% 1.6 mph S2.6 kmh S 5.8 mph9.3 kmh 29.98 in1015.2 mb 0.00 in0.0 mm 0.00 in0.0 mm 0.00 in0.0 mm
04:50 PM 47.5°F8.6°C 41.0°F5.0°C 77% 2.1 mph S3.4 kmh S 5.8 mph9.3 kmh 29.98 in1015.2 mb 0.00 in0.0 mm 0.00 in0.0 mm 0.00 in0.0 mm
04:55 PM 47.5°F8.6°C 41.0°F5.0°C 77% 1.9 mph SSE3.1 kmh SSE 5.8 mph9.3 kmh 29.98 in1015.2 mb 0.00 in0.0 mm 0.00 in0.0 mm 0.00 in0.0 mm
05:00 PM 47.3°F8.5°C 41.0°F5.0°C 77% 1.8 mph S2.9 kmh S 4.0 mph6.4 kmh 29.98 in1015.2 mb 0.00 in0.0 mm 0.00 in0.0 mm 0.00 in0.0 mm
05:05 PM 47.3°F8.5°C 41.0°F5.0°C 77% 1.6 mph S2.6 kmh S 4.0 mph6.4 kmh 29.98 in1015.2 mb 0.00 in0.0 mm 0.00 in0.0 mm 0.00 in0.0 mm
05:10 PM 47.3°F8.5°C 41.0°F5.0°C 77% 0.9 mph S1.4 kmh S 2.7 mph4.3 kmh 29.98 in1015.2 mb 0.00 in0.0 mm 0.00 in0.0 mm 0.00 in0.0 mm
05:15 PM 47.3°F8.5°C 41.0°F5.0°C 77% 1.0 mph SE1.6 kmh SE 3.1 mph5.0 kmh 29.98 in1015.2 mb 0.00 in0.0 mm 0.00 in0.0 mm 0.00 in0.0 mm
05:20 PM 47.1°F8.4°C 41.0°F5.0°C 77% 1.3 mph SE2.1 kmh SE 3.1 mph5.0 kmh 29.98 in1015.2 mb 0.00 in0.0 mm 0.00 in0.0 mm 0.00 in0.0 mm
05:25 PM 47.1°F8.4°C 41.0°F5.0°C 77% 1.2 mph SSE1.9 kmh SSE 2.7 mph4.3 kmh 29.98 in1015.2 mb 0.00 in0.0 mm 0.00 in0.0 mm 0.00 in0.0 mm
05:30 PM 46.9°F8.3°C 41.0°F5.0°C 77% 0.8 mph S1.3 kmh S 2.7 mph4.3 kmh 29.98 in1015.2 mb 0.00 in0.0 mm 0.00 in0.0 mm 0.00 in0.0 mm
05:35 PM 46.9°F8.3°C 41.0°F5.0°C 77% 0.5 mph SE0.8 kmh SE 1.3 mph2.1 kmh 29.98 in1015.2 mb 0.00 in0.0 mm 0.00 in0.0 mm 0.00 in0.0 mm
05:40 PM 46.9°F8.3°C 41.0°F5.0°C 77% 0.5 mph SE0.8 kmh SE 1.3 mph2.1 kmh 29.98 in1015.2 mb 0.00 in0.0 mm 0.00 in0.0 mm 0.00 in0.0 mm
05:45 PM 46.8°F8.2°C 41.0°F5.0°C 77% 0.4 mph ESE0.6 kmh ESE 1.1 mph1.8 kmh 29.98 in1015.2 mb 0.00 in0.0 mm 0.00 in0.0 mm 0.00 in0.0 mm
05:50 PM 46.8°F8.2°C 41.0°F5.0°C 77% 0.2 mph E0.3 kmh E 0.9 mph1.4 kmh 29.98 in1015.2 mb 0.00 in0.0 mm 0.00 in0.0 mm 0.00 in0.0 mm
05:55 PM 46.8°F8.2°C 41.0°F5.0°C 78% 0.2 mph SE0.3 kmh SE 1.1 mph1.8 kmh 29.98 in1015.2 mb 0.00 in0.0 mm 0.00 in0.0 mm 0.00 in0.0 mm
06:00 PM 46.6°F8.1°C 41.0°F5.0°C 78% 0.4 mph SSE0.6 kmh SSE 2.5 mph4.0 kmh 29.98 in1015.2 mb 0.00 in0.0 mm 0.00 in0.0 mm 0.00 in0.0 mm
06:05 PM 46.6°F8.1°C 41.0°F5.0°C 78% 0.2 mph SSE0.3 kmh SSE 2.5 mph4.0 kmh 29.98 in1015.2 mb 0.00 in0.0 mm 0.00 in0.0 mm 0.00 in0.0 mm
06:10 PM 46.6°F8.1°C 41.0°F5.0°C 78% 0.1 mph SE0.2 kmh SE 1.1 mph1.8 kmh 29.98 in1015.2 mb 0.00 in0.0 mm 0.00 in0.0 mm 0.00 in0.0 mm
06:15 PM 46.4°F8.0°C 41.0°F5.0°C 78% 0.3 mph SE0.5 kmh SE 1.1 mph1.8 kmh 29.98 in1015.2 mb 0.00 in0.0 mm 0.00 in0.0 mm 0.00 in0.0 mm
06:20 PM 46.4°F8.0°C 41.0°F5.0°C 78% 0.2 mph ESE0.3 kmh ESE 0.9 mph1.4 kmh 29.98 in1015.2 mb 0.00 in0.0 mm 0.00 in0.0 mm 0.00 in0.0 mm
06:25 PM 46.4°F8.0°C 41.0°F5.0°C 78% 0.2 mph SE0.3 kmh SE 0.9 mph1.4 kmh 29.95 in1014.2 mb 0.00 in0.0 mm 0.00 in0.0 mm 0.00 in0.0 mm
06:30 PM 46.4°F8.0°C 41.0°F5.0°C 78% 0.3 mph SE0.5 kmh SE 0.9 mph1.4 kmh 29.95 in1014.2 mb 0.00 in0.0 mm 0.00 in0.0 mm 0.00 in0.0 mm
06:35 PM 46.2°F7.9°C 39.2°F4.0°C 78% 0.5 mph SE0.8 kmh SE 1.6 mph2.6 kmh 29.95 in1014.2 mb 0.00 in0.0 mm 0.00 in0.0 mm 0.00 in0.0 mm
06:40 PM 46.2°F7.9°C 39.2°F4.0°C 78% 0.3 mph SE0.5 kmh SE 1.6 mph2.6 kmh 29.95 in1014.2 mb 0.00 in0.0 mm 0.00 in0.0 mm 0.00 in0.0 mm
06:45 PM 46.2°F7.9°C 39.2°F4.0°C 78% Calm Calm -- 29.95 in1014.2 mb 0.00 in0.0 mm 0.00 in0.0 mm 0.00 in0.0 mm
06:50 PM 46.2°F7.9°C 39.2°F4.0°C 78% 0.1 mph SSE0.2 kmh SSE 0.9 mph1.4 kmh 29.95 in1014.2 mb 0.00 in0.0 mm 0.00 in0.0 mm 0.00 in0.0 mm
06:55 PM 46.2°F7.9°C 39.2°F4.0°C 78% 0.1 mph SSE0.2 kmh SSE 0.9 mph1.4 kmh 29.95 in1014.2 mb 0.00 in0.0 mm 0.00 in0.0 mm 0.00 in0.0 mm
07:00 PM 46.0°F7.8°C 39.2°F4.0°C 78% Calm Calm -- 29.95 in1014.2 mb 0.00 in0.0 mm 0.00 in0.0 mm 0.00 in0.0 mm
07:05 PM 46.0°F7.8°C 39.2°F4.0°C 78% Calm Calm -- 29.95 in1014.2 mb 0.00 in0.0 mm 0.00 in0.0 mm 0.00 in0.0 mm
07:10 PM 46.0°F7.8°C 39.2°F4.0°C 78% Calm Calm -- 29.95 in1014.2 mb 0.00 in0.0 mm 0.00 in0.0 mm 0.00 in0.0 mm
07:15 PM 46.0°F7.8°C 39.2°F4.0°C 78% Calm Calm -- 29.95 in1014.2 mb 0.00 in0.0 mm 0.00 in0.0 mm 0.00 in0.0 mm
07:20 PM 46.0°F7.8°C 39.2°F4.0°C 78% Calm Calm -- 29.95 in1014.2 mb 0.00 in0.0 mm 0.00 in0.0 mm 0.00 in0.0 mm
07:25 PM 46.0°F7.8°C 39.2°F4.0°C 78% 0.3 mph SE0.5 kmh SE 1.3 mph2.1 kmh 29.95 in1014.2 mb 0.00 in0.0 mm 0.00 in0.0 mm 0.00 in0.0 mm
07:30 PM 46.0°F7.8°C 39.2°F4.0°C 78% 0.9 mph S1.4 kmh S 2.0 mph3.2 kmh 29.95 in1014.2 mb 0.00 in0.0 mm 0.00 in0.0 mm 0.00 in0.0 mm
07:35 PM 46.0°F7.8°C 39.2°F4.0°C 78% 0.8 mph S1.3 kmh S 2.0 mph3.2 kmh 29.95 in1014.2 mb 0.00 in0.0 mm 0.00 in0.0 mm 0.00 in0.0 mm
07:40 PM 46.0°F7.8°C 39.2°F4.0°C 78% 0.5 mph E0.8 kmh E 1.3 mph2.1 kmh 29.95 in1014.2 mb 0.00 in0.0 mm 0.00 in0.0 mm 0.00 in0.0 mm
07:45 PM 45.7°F7.6°C 39.2°F4.0°C 78% 0.9 mph NE1.4 kmh NE 2.2 mph3.5 kmh 29.95 in1014.2 mb 0.00 in0.0 mm 0.00 in0.0 mm 0.00 in0.0 mm
07:50 PM 45.7°F7.6°C 39.2°F4.0°C 78% 0.6 mph NE1.0 kmh NE 2.2 mph3.5 kmh 29.95 in1014.2 mb 0.00 in0.0 mm 0.00 in0.0 mm 0.00 in0.0 mm
07:55 PM 45.5°F7.5°C 39.2°F4.0°C 78% 0.2 mph NE0.3 kmh NE 0.9 mph1.4 kmh 29.95 in1014.2 mb 0.00 in0.0 mm 0.00 in0.0 mm 0.00 in0.0 mm
08:00 PM 45.5°F7.5°C 39.2°F4.0°C 78% 0.2 mph NE0.3 kmh NE 0.9 mph1.4 kmh 29.95 in1014.2 mb 0.00 in0.0 mm 0.00 in0.0 mm 0.00 in0.0 mm
08:05 PM 45.3°F7.4°C 39.2°F4.0°C 78% 0.1 mph NE0.2 kmh NE 0.9 mph1.4 kmh 29.95 in1014.2 mb 0.00 in0.0 mm 0.00 in0.0 mm 0.00 in0.0 mm
08:10 PM 45.1°F7.3°C 39.2°F4.0°C 78% 0.1 mph NE0.2 kmh NE 0.9 mph1.4 kmh 29.95 in1014.2 mb 0.00 in0.0 mm 0.00 in0.0 mm 0.00 in0.0 mm
08:15 PM 45.3°F7.4°C 39.2°F4.0°C 78% 0.1 mph NE0.2 kmh NE 0.9 mph1.4 kmh 29.95 in1014.2 mb 0.00 in0.0 mm 0.00 in0.0 mm 0.00 in0.0 mm
08:20 PM 45.1°F7.3°C 39.2°F4.0°C 78% Calm Calm -- 29.95 in1014.2 mb 0.00 in0.0 mm 0.00 in0.0 mm 0.00 in0.0 mm
08:25 PM 45.1°F7.3°C 39.2°F4.0°C 79% Calm Calm -- 29.92 in1013.2 mb 0.00 in0.0 mm 0.00 in0.0 mm 0.00 in0.0 mm
08:30 PM 45.1°F7.3°C 39.2°F4.0°C 79% Calm Calm -- 29.92 in1013.2 mb 0.00 in0.0 mm 0.00 in0.0 mm 0.00 in0.0 mm
08:35 PM 45.3°F7.4°C 39.2°F4.0°C 79% Calm Calm -- 29.92 in1013.2 mb 0.00 in0.0 mm 0.00 in0.0 mm 0.00 in0.0 mm
08:40 PM 45.1°F7.3°C 39.2°F4.0°C 79% 0.1 mph SSE0.2 kmh SSE 0.9 mph1.4 kmh 29.92 in1013.2 mb 0.00 in0.0 mm 0.00 in0.0 mm 0.00 in0.0 mm
08:45 PM 45.1°F7.3°C 39.2°F4.0°C 79% 0.3 mph SSE0.5 kmh SSE 1.1 mph1.8 kmh 29.92 in1013.2 mb 0.00 in0.0 mm 0.00 in0.0 mm 0.00 in0.0 mm
08:50 PM 45.0°F7.2°C 39.2°F4.0°C 79% 0.5 mph SSE0.8 kmh SSE 1.1 mph1.8 kmh 29.92 in1013.2 mb 0.00 in0.0 mm 0.00 in0.0 mm 0.00 in0.0 mm
08:55 PM 45.1°F7.3°C 39.2°F4.0°C 79% 0.3 mph SSE0.5 kmh SSE 1.1 mph1.8 kmh 29.92 in1013.2 mb 0.00 in0.0 mm 0.00 in0.0 mm 0.00 in0.0 mm
09:00 PM 45.3°F7.4°C 39.2°F4.0°C 79% 0.3 mph SSE0.5 kmh SSE 1.3 mph2.1 kmh 29.92 in1013.2 mb 0.00 in0.0 mm 0.00 in0.0 mm 0.00 in0.0 mm
09:05 PM 45.1°F7.3°C 39.2°F4.0°C 79% 0.6 mph SSE1.0 kmh SSE 1.3 mph2.1 kmh 29.92 in1013.2 mb 0.00 in0.0 mm 0.00 in0.0 mm 0.00 in0.0 mm
09:10 PM 45.3°F7.4°C 39.2°F4.0°C 80% 0.4 mph SE0.6 kmh SE 1.1 mph1.8 kmh 29.89 in1012.2 mb 0.00 in0.0 mm 0.00 in0.0 mm 0.00 in0.0 mm
09:15 PM 45.3°F7.4°C 39.2°F4.0°C 80% 0.4 mph SE0.6 kmh SE 1.1 mph1.8 kmh 29.89 in1012.2 mb 0.00 in0.0 mm 0.00 in0.0 mm 0.00 in0.0 mm
09:20 PM 45.3°F7.4°C 39.2°F4.0°C 80% 0.4 mph SE0.6 kmh SE 2.5 mph4.0 kmh 29.89 in1012.2 mb 0.00 in0.0 mm 0.00 in0.0 mm 0.00 in0.0 mm
09:25 PM 45.3°F7.4°C 39.2°F4.0°C 80% 0.3 mph SE0.5 kmh SE 2.5 mph4.0 kmh 29.89 in1012.2 mb 0.00 in0.0 mm 0.00 in0.0 mm 0.00 in0.0 mm
09:30 PM 45.1°F7.3°C 39.2°F4.0°C 80% 0.2 mph ESE0.3 kmh ESE 0.9 mph1.4 kmh 29.89 in1012.2 mb 0.00 in0.0 mm 0.00 in0.0 mm 0.00 in0.0 mm
09:35 PM 45.0°F7.2°C 39.2°F4.0°C 80% 0.2 mph ESE0.3 kmh ESE 0.9 mph1.4 kmh 29.89 in1012.2 mb 0.00 in0.0 mm 0.00 in0.0 mm 0.00 in0.0 mm
09:40 PM 44.6°F7.0°C 39.2°F4.0°C 80% 0.3 mph SE0.5 kmh SE 2.0 mph3.2 kmh 29.89 in1012.2 mb 0.00 in0.0 mm 0.00 in0.0 mm 0.00 in0.0 mm
09:45 PM 44.8°F7.1°C 39.2°F4.0°C 81% 0.3 mph SE0.5 kmh SE 2.0 mph3.2 kmh 29.89 in1012.2 mb 0.00 in0.0 mm 0.00 in0.0 mm 0.00 in0.0 mm
09:50 PM 44.8°F7.1°C 39.2°F4.0°C 81% 0.1 mph ENE0.2 kmh ENE 0.9 mph1.4 kmh 29.89 in1012.2 mb 0.00 in0.0 mm 0.00 in0.0 mm 0.00 in0.0 mm
09:55 PM 44.8°F7.1°C 39.2°F4.0°C 81% 0.2 mph E0.3 kmh E 1.1 mph1.8 kmh 29.89 in1012.2 mb 0.00 in0.0 mm 0.00 in0.0 mm 0.00 in0.0 mm
10:00 PM 44.6°F7.0°C 39.2°F4.0°C 81% 0.1 mph E0.2 kmh E 1.1 mph1.8 kmh 29.89 in1012.2 mb 0.00 in0.0 mm 0.00 in0.0 mm 0.00 in0.0 mm
10:05 PM 44.6°F7.0°C 39.2°F4.0°C 81% Calm Calm -- 29.89 in1012.2 mb 0.00 in0.0 mm 0.00 in0.0 mm 0.00 in0.0 mm
10:10 PM 44.8°F7.1°C 39.2°F4.0°C 81% 0.1 mph SE0.2 kmh SE 0.9 mph1.4 kmh 29.86 in1011.2 mb 0.00 in0.0 mm 0.00 in0.0 mm 0.00 in0.0 mm
10:15 PM 44.8°F7.1°C 39.2°F4.0°C 81% 0.2 mph SSE0.3 kmh SSE 2.0 mph3.2 kmh 29.86 in1011.2 mb 0.00 in0.0 mm 0.00 in0.0 mm 0.00 in0.0 mm
10:20 PM 44.8°F7.1°C 39.2°F4.0°C 81% 0.1 mph S0.2 kmh S 2.0 mph3.2 kmh 29.86 in1011.2 mb 0.00 in0.0 mm 0.00 in0.0 mm 0.00 in0.0 mm
10:25 PM 44.6°F7.0°C 39.2°F4.0°C 81% Calm Calm -- 29.86 in1011.2 mb 0.00 in0.0 mm 0.00 in0.0 mm 0.00 in0.0 mm
10:30 PM 44.4°F6.9°C 39.2°F4.0°C 82% Calm Calm -- 29.86 in1011.2 mb 0.00 in0.0 mm 0.00 in0.0 mm 0.00 in0.0 mm
10:35 PM 44.4°F6.9°C 39.2°F4.0°C 82% Calm Calm -- 29.86 in1011.2 mb 0.00 in0.0 mm 0.00 in0.0 mm 0.00 in0.0 mm
10:40 PM 44.1°F6.7°C 39.2°F4.0°C 82% 0.1 mph ESE0.2 kmh ESE 0.9 mph1.4 kmh 29.86 in1011.2 mb 0.00 in0.0 mm 0.00 in0.0 mm 0.00 in0.0 mm
10:45 PM 43.9°F6.6°C 39.2°F4.0°C 82% 0.2 mph SE0.3 kmh SE 1.1 mph1.8 kmh 29.86 in1011.2 mb 0.00 in0.0 mm 0.00 in0.0 mm 0.00 in0.0 mm
10:50 PM 43.7°F6.5°C 39.2°F4.0°C 82% 0.4 mph SSE0.6 kmh SSE 2.5 mph4.0 kmh 29.86 in1011.2 mb 0.00 in0.0 mm 0.00 in0.0 mm 0.00 in0.0 mm
10:55 PM 43.5°F6.4°C 39.2°F4.0°C 82% 0.3 mph S0.5 kmh S 2.5 mph4.0 kmh 29.86 in1011.2 mb 0.00 in0.0 mm 0.00 in0.0 mm 0.00 in0.0 mm
11:00 PM 43.2°F6.2°C 39.2°F4.0°C 82% Calm Calm -- 29.86 in1011.2 mb 0.00 in0.0 mm 0.00 in0.0 mm 0.00 in0.0 mm
11:05 PM 43.2°F6.2°C 39.2°F4.0°C 82% Calm Calm -- 29.86 in1011.2 mb 0.00 in0.0 mm 0.00 in0.0 mm 0.00 in0.0 mm
11:10 PM 43.3°F6.3°C 39.2°F4.0°C 82% Calm Calm -- 29.86 in1011.2 mb 0.00 in0.0 mm 0.00 in0.0 mm 0.00 in0.0 mm
11:15 PM 43.3°F6.3°C 39.2°F4.0°C 82% Calm Calm -- 29.86 in1011.2 mb 0.00 in0.0 mm 0.00 in0.0 mm 0.00 in0.0 mm
11:20 PM 43.3°F6.3°C 39.2°F4.0°C 82% Calm Calm -- 29.86 in1011.2 mb 0.00 in0.0 mm 0.00 in0.0 mm 0.00 in0.0 mm
11:25 PM 43.3°F6.3°C 39.2°F4.0°C 82% 0.1 mph SE0.2 kmh SE 0.9 mph1.4 kmh 29.86 in1011.2 mb 0.00 in0.0 mm 0.00 in0.0 mm 0.00 in0.0 mm
11:30 PM 43.5°F6.4°C 39.2°F4.0°C 82% 0.1 mph SE0.2 kmh SE 0.9 mph1.4 kmh 29.86 in1011.2 mb 0.00 in0.0 mm 0.00 in0.0 mm 0.00 in0.0 mm
11:35 PM 43.3°F6.3°C 39.2°F4.0°C 83% 0.1 mph SE0.2 kmh SE 0.9 mph1.4 kmh 29.86 in1011.2 mb 0.00 in0.0 mm 0.00 in0.0 mm 0.00 in0.0 mm
11:40 PM 43.3°F6.3°C 39.2°F4.0°C 83% 0.1 mph SE0.2 kmh SE 0.9 mph1.4 kmh 29.83 in1010.2 mb 0.00 in0.0 mm 0.00 in0.0 mm 0.00 in0.0 mm
11:45 PM 43.3°F6.3°C 39.2°F4.0°C 83% Calm Calm -- 29.83 in1010.2 mb 0.00 in0.0 mm 0.00 in0.0 mm 0.00 in0.0 mm
11:50 PM 43.2°F6.2°C 39.2°F4.0°C 83% 0.2 mph SE0.3 kmh SE 1.1 mph1.8 kmh 29.83 in1010.2 mb 0.00 in0.0 mm 0.00 in0.0 mm 0.00 in0.0 mm
11:55 PM 43.2°F6.2°C 39.2°F4.0°C 83% 0.3 mph SE0.5 kmh SE 1.1 mph1.8 kmh 29.83 in1010.2 mb 0.00 in0.0 mm 0.00 in0.0 mm 0.00 in0.0 mm